sensor_id;sensor_type;location;lat;lon;timestamp;temperature;humidity
12977;DHT22;6553;48.412;9.514;2023-08-07T00:00:46;20.60;74.90
12977;DHT22;6553;48.412;9.514;2023-08-07T00:03:12;20.60;74.80
12977;DHT22;6553;48.412;9.514;2023-08-07T00:05:47;20.60;74.90
12977;DHT22;6553;48.412;9.514;2023-08-07T00:08:13;20.60;74.90
12977;DHT22;6553;48.412;9.514;2023-08-07T00:10:39;20.60;74.90
12977;DHT22;6553;48.412;9.514;2023-08-07T00:13:05;20.60;74.80
12977;DHT22;6553;48.412;9.514;2023-08-07T00:15:31;20.60;74.90
12977;DHT22;6553;48.412;9.514;2023-08-07T00:17:59;20.60;74.80
12977;DHT22;6553;48.412;9.514;2023-08-07T00:20:25;20.60;74.80
12977;DHT22;6553;48.412;9.514;2023-08-07T00:22:50;20.60;74.80
12977;DHT22;6553;48.412;9.514;2023-08-07T00:25:16;20.60;74.80
12977;DHT22;6553;48.412;9.514;2023-08-07T00:27:42;20.60;74.80
12977;DHT22;6553;48.412;9.514;2023-08-07T00:30:08;20.60;74.90
12977;DHT22;6553;48.412;9.514;2023-08-07T00:32:34;20.60;74.80
12977;DHT22;6553;48.412;9.514;2023-08-07T00:35:00;20.60;74.80
12977;DHT22;6553;48.412;9.514;2023-08-07T00:37:26;20.60;74.70
12977;DHT22;6553;48.412;9.514;2023-08-07T00:39:51;20.60;74.70
12977;DHT22;6553;48.412;9.514;2023-08-07T00:42:17;20.60;74.80
12977;DHT22;6553;48.412;9.514;2023-08-07T00:44:43;20.60;74.80
12977;DHT22;6553;48.412;9.514;2023-08-07T00:47:09;20.60;74.80
12977;DHT22;6553;48.412;9.514;2023-08-07T00:49:35;20.60;74.70
12977;DHT22;6553;48.412;9.514;2023-08-07T00:52:01;20.60;74.70
12977;DHT22;6553;48.412;9.514;2023-08-07T00:54:28;20.60;74.80
12977;DHT22;6553;48.412;9.514;2023-08-07T00:56:54;20.60;74.70
12977;DHT22;6553;48.412;9.514;2023-08-07T00:59:20;20.60;74.80
12977;DHT22;6553;48.412;9.514;2023-08-07T01:01:46;20.60;74.80
12977;DHT22;6553;48.412;9.514;2023-08-07T01:04:12;20.60;74.70
12977;DHT22;6553;48.412;9.514;2023-08-07T01:06:38;20.60;74.80
12977;DHT22;6553;48.412;9.514;2023-08-07T01:09:04;20.60;74.70
12977;DHT22;6553;48.412;9.514;2023-08-07T01:11:40;20.60;74.70
12977;DHT22;6553;48.412;9.514;2023-08-07T01:17:25;20.60;74.60
12977;DHT22;6553;48.412;9.514;2023-08-07T01:19:52;20.50;74.60
12977;DHT22;6553;48.412;9.514;2023-08-07T01:22:19;20.60;74.60
12977;DHT22;6553;48.412;9.514;2023-08-07T01:24:47;20.60;74.60
12977;DHT22;6553;48.412;9.514;2023-08-07T01:35:40;20.50;74.60
12977;DHT22;6553;48.412;9.514;2023-08-07T01:38:09;20.60;74.60
12977;DHT22;6553;48.412;9.514;2023-08-07T01:40:40;20.50;74.50
12977;DHT22;6553;48.412;9.514;2023-08-07T01:43:07;20.60;74.60
12977;DHT22;6553;48.412;9.514;2023-08-07T01:45:34;20.60;74.60
12977;DHT22;6553;48.412;9.514;2023-08-07T01:48:00;20.50;74.50
12977;DHT22;6553;48.412;9.514;2023-08-07T01:50:26;20.60;74.70
12977;DHT22;6553;48.412;9.514;2023-08-07T01:52:52;20.50;74.50
12977;DHT22;6553;48.412;9.514;2023-08-07T01:55:19;20.50;74.40
12977;DHT22;6553;48.412;9.514;2023-08-07T01:57:50;20.50;74.50
12977;DHT22;6553;48.412;9.514;2023-08-07T02:00:16;20.60;74.50
12977;DHT22;6553;48.412;9.514;2023-08-07T02:02:42;20.50;74.60
12977;DHT22;6553;48.412;9.514;2023-08-07T02:05:10;20.50;74.50
12977;DHT22;6553;48.412;9.514;2023-08-07T02:07:35;20.50;74.40
12977;DHT22;6553;48.412;9.514;2023-08-07T02:10:02;20.50;74.50
12977;DHT22;6553;48.412;9.514;2023-08-07T02:12:28;20.50;74.60
12977;DHT22;6553;48.412;9.514;2023-08-07T02:14:58;20.50;74.50
12977;DHT22;6553;48.412;9.514;2023-08-07T02:17:26;20.50;74.50
12977;DHT22;6553;48.412;9.514;2023-08-07T02:19:53;20.60;74.50
12977;DHT22;6553;48.412;9.514;2023-08-07T02:22:19;20.50;74.40
12977;DHT22;6553;48.412;9.514;2023-08-07T02:24:45;20.50;74.40
12977;DHT22;6553;48.412;9.514;2023-08-07T02:27:11;20.50;74.40
12977;DHT22;6553;48.412;9.514;2023-08-07T02:29:37;20.60;74.50
12977;DHT22;6553;48.412;9.514;2023-08-07T02:32:03;20.50;74.40
12977;DHT22;6553;48.412;9.514;2023-08-07T02:34:30;20.60;74.50
12977;DHT22;6553;48.412;9.514;2023-08-07T02:36:57;20.50;74.40
12977;DHT22;6553;48.412;9.514;2023-08-07T02:39:24;20.50;74.30
12977;DHT22;6553;48.412;9.514;2023-08-07T02:41:51;20.50;74.30
12977;DHT22;6553;48.412;9.514;2023-08-07T02:44:17;20.50;74.40
12977;DHT22;6553;48.412;9.514;2023-08-07T02:46:43;20.50;74.20
12977;DHT22;6553;48.412;9.514;2023-08-07T02:49:09;20.50;74.40
12977;DHT22;6553;48.412;9.514;2023-08-07T02:51:35;20.50;74.40
12977;DHT22;6553;48.412;9.514;2023-08-07T02:54:00;20.50;74.40
12977;DHT22;6553;48.412;9.514;2023-08-07T02:56:26;20.60;74.50
12977;DHT22;6553;48.412;9.514;2023-08-07T02:58:52;20.50;74.40
12977;DHT22;6553;48.412;9.514;2023-08-07T03:01:19;20.50;74.50
12977;DHT22;6553;48.412;9.514;2023-08-07T03:03:45;20.50;74.40
12977;DHT22;6553;48.412;9.514;2023-08-07T03:06:11;20.50;74.40
12977;DHT22;6553;48.412;9.514;2023-08-07T03:08:36;20.50;74.40
12977;DHT22;6553;48.412;9.514;2023-08-07T03:11:02;20.50;74.60
12977;DHT22;6553;48.412;9.514;2023-08-07T03:13:28;20.50;74.50
12977;DHT22;6553;48.412;9.514;2023-08-07T03:16:01;20.50;74.40
12977;DHT22;6553;48.412;9.514;2023-08-07T03:18:29;20.50;74.30
12977;DHT22;6553;48.412;9.514;2023-08-07T03:20:56;20.50;74.30
12977;DHT22;6553;48.412;9.514;2023-08-07T03:23:23;20.50;74.40
12977;DHT22;6553;48.412;9.514;2023-08-07T03:25:50;20.50;74.40
12977;DHT22;6553;48.412;9.514;2023-08-07T03:28:17;20.50;74.30
12977;DHT22;6553;48.412;9.514;2023-08-07T03:30:43;20.50;74.40
12977;DHT22;6553;48.412;9.514;2023-08-07T03:33:11;20.50;74.30
12977;DHT22;6553;48.412;9.514;2023-08-07T03:35:38;20.50;74.40
12977;DHT22;6553;48.412;9.514;2023-08-07T03:38:05;20.50;74.30
12977;DHT22;6553;48.412;9.514;2023-08-07T03:40:31;20.50;74.30
12977;DHT22;6553;48.412;9.514;2023-08-07T03:42:57;20.50;74.40
12977;DHT22;6553;48.412;9.514;2023-08-07T03:45:24;20.50;74.30
12977;DHT22;6553;48.412;9.514;2023-08-07T03:47:49;20.50;75.00
12977;DHT22;6553;48.412;9.514;2023-08-07T03:50:15;20.50;74.40
12977;DHT22;6553;48.412;9.514;2023-08-07T03:52:41;20.50;74.40
12977;DHT22;6553;48.412;9.514;2023-08-07T03:55:07;20.50;74.30
12977;DHT22;6553;48.412;9.514;2023-08-07T03:57:32;20.50;74.40
12977;DHT22;6553;48.412;9.514;2023-08-07T03:59:58;20.50;74.30
12977;DHT22;6553;48.412;9.514;2023-08-07T04:02:27;20.50;74.40
12977;DHT22;6553;48.412;9.514;2023-08-07T04:04:54;20.50;74.40
12977;DHT22;6553;48.412;9.514;2023-08-07T04:07:20;20.50;74.30
12977;DHT22;6553;48.412;9.514;2023-08-07T04:09:46;20.50;74.50
12977;DHT22;6553;48.412;9.514;2023-08-07T04:12:11;20.50;74.30
12977;DHT22;6553;48.412;9.514;2023-08-07T04:14:38;20.50;74.20
12977;DHT22;6553;48.412;9.514;2023-08-07T04:17:03;20.50;74.20
12977;DHT22;6553;48.412;9.514;2023-08-07T04:19:29;20.50;74.20
12977;DHT22;6553;48.412;9.514;2023-08-07T04:21:55;20.50;74.20
12977;DHT22;6553;48.412;9.514;2023-08-07T04:24:21;20.50;74.30
12977;DHT22;6553;48.412;9.514;2023-08-07T04:26:46;20.50;74.10
12977;DHT22;6553;48.412;9.514;2023-08-07T04:29:12;20.50;74.20
12977;DHT22;6553;48.412;9.514;2023-08-07T04:31:38;20.40;74.10
12977;DHT22;6553;48.412;9.514;2023-08-07T04:34:03;20.40;74.90
12977;DHT22;6553;48.412;9.514;2023-08-07T04:36:30;20.40;74.10
12977;DHT22;6553;48.412;9.514;2023-08-07T04:38:55;20.50;74.20
12977;DHT22;6553;48.412;9.514;2023-08-07T04:41:22;20.50;74.30
12977;DHT22;6553;48.412;9.514;2023-08-07T04:43:47;20.40;74.00
12977;DHT22;6553;48.412;9.514;2023-08-07T04:46:14;20.50;74.10
12977;DHT22;6553;48.412;9.514;2023-08-07T04:48:40;20.50;74.20
12977;DHT22;6553;48.412;9.514;2023-08-07T04:51:06;20.40;74.20
12977;DHT22;6553;48.412;9.514;2023-08-07T04:53:32;20.40;74.20
12977;DHT22;6553;48.412;9.514;2023-08-07T04:55:59;20.40;74.10
12977;DHT22;6553;48.412;9.514;2023-08-07T04:58:25;20.40;74.10
12977;DHT22;6553;48.412;9.514;2023-08-07T05:00:57;20.40;74.00
12977;DHT22;6553;48.412;9.514;2023-08-07T05:03:24;20.50;74.10
12977;DHT22;6553;48.412;9.514;2023-08-07T05:05:58;20.40;74.00
12977;DHT22;6553;48.412;9.514;2023-08-07T05:08:25;20.40;73.90
12977;DHT22;6553;48.412;9.514;2023-08-07T05:10:51;20.40;73.90
12977;DHT22;6553;48.412;9.514;2023-08-07T05:13:16;20.40;73.90
12977;DHT22;6553;48.412;9.514;2023-08-07T05:15:42;20.40;74.00
12977;DHT22;6553;48.412;9.514;2023-08-07T05:18:08;20.40;74.00
12977;DHT22;6553;48.412;9.514;2023-08-07T05:20:34;20.40;73.90
12977;DHT22;6553;48.412;9.514;2023-08-07T05:22:59;20.40;73.90
12977;DHT22;6553;48.412;9.514;2023-08-07T05:25:26;20.40;73.90
12977;DHT22;6553;48.412;9.514;2023-08-07T05:27:51;20.40;74.00
12977;DHT22;6553;48.412;9.514;2023-08-07T05:30:17;20.40;74.00
12977;DHT22;6553;48.412;9.514;2023-08-07T05:32:43;20.40;73.90
12977;DHT22;6553;48.412;9.514;2023-08-07T05:35:08;20.40;74.00
12977;DHT22;6553;48.412;9.514;2023-08-07T05:37:35;20.40;74.00
12977;DHT22;6553;48.412;9.514;2023-08-07T05:40:01;20.40;73.90
12977;DHT22;6553;48.412;9.514;2023-08-07T05:42:27;20.40;74.00
12977;DHT22;6553;48.412;9.514;2023-08-07T05:44:53;20.40;74.00
12977;DHT22;6553;48.412;9.514;2023-08-07T05:47:19;20.40;74.10
12977;DHT22;6553;48.412;9.514;2023-08-07T05:49:45;20.40;74.00
12977;DHT22;6553;48.412;9.514;2023-08-07T05:52:10;20.40;74.00
12977;DHT22;6553;48.412;9.514;2023-08-07T05:54:36;20.40;73.90
12977;DHT22;6553;48.412;9.514;2023-08-07T05:57:02;20.40;74.00
12977;DHT22;6553;48.412;9.514;2023-08-07T05:59:28;20.40;73.90
12977;DHT22;6553;48.412;9.514;2023-08-07T06:01:55;20.40;73.80
12977;DHT22;6553;48.412;9.514;2023-08-07T06:04:21;20.40;74.10
12977;DHT22;6553;48.412;9.514;2023-08-07T06:06:47;20.40;73.90
12977;DHT22;6553;48.412;9.514;2023-08-07T06:09:13;20.40;73.90
12977;DHT22;6553;48.412;9.514;2023-08-07T06:11:42;20.40;73.80
12977;DHT22;6553;48.412;9.514;2023-08-07T06:14:08;20.40;73.80
12977;DHT22;6553;48.412;9.514;2023-08-07T06:16:34;20.40;73.90
12977;DHT22;6553;48.412;9.514;2023-08-07T06:19:00;20.40;73.90
12977;DHT22;6553;48.412;9.514;2023-08-07T06:21:25;20.40;73.80
12977;DHT22;6553;48.412;9.514;2023-08-07T06:23:54;20.40;73.60
12977;DHT22;6553;48.412;9.514;2023-08-07T06:26:20;20.40;73.90
12977;DHT22;6553;48.412;9.514;2023-08-07T06:28:45;20.40;73.80
12977;DHT22;6553;48.412;9.514;2023-08-07T06:31:12;20.40;74.70
12977;DHT22;6553;48.412;9.514;2023-08-07T06:33:38;20.40;73.80
12977;DHT22;6553;48.412;9.514;2023-08-07T06:36:04;20.40;73.90
12977;DHT22;6553;48.412;9.514;2023-08-07T06:38:30;20.40;73.90
12977;DHT22;6553;48.412;9.514;2023-08-07T06:40:56;20.40;73.80
12977;DHT22;6553;48.412;9.514;2023-08-07T06:43:22;20.40;73.90
12977;DHT22;6553;48.412;9.514;2023-08-07T06:45:56;20.40;73.90
12977;DHT22;6553;48.412;9.514;2023-08-07T06:48:22;20.40;73.50
12977;DHT22;6553;48.412;9.514;2023-08-07T06:50:51;20.40;74.00
12977;DHT22;6553;48.412;9.514;2023-08-07T06:53:17;20.40;73.80
12977;DHT22;6553;48.412;9.514;2023-08-07T06:55:43;20.40;73.70
12977;DHT22;6553;48.412;9.514;2023-08-07T06:58:10;20.40;73.70
12977;DHT22;6553;48.412;9.514;2023-08-07T07:00:36;20.40;73.70
12977;DHT22;6553;48.412;9.514;2023-08-07T07:03:03;20.40;73.60
12977;DHT22;6553;48.412;9.514;2023-08-07T07:05:30;20.40;75.40
12977;DHT22;6553;48.412;9.514;2023-08-07T07:07:57;20.50;75.60
12977;DHT22;6553;48.412;9.514;2023-08-07T07:10:23;20.50;75.80
12977;DHT22;6553;48.412;9.514;2023-08-07T07:12:49;20.50;75.60
12977;DHT22;6553;48.412;9.514;2023-08-07T07:15:15;20.50;75.60
12977;DHT22;6553;48.412;9.514;2023-08-07T07:17:41;20.50;75.80
12977;DHT22;6553;48.412;9.514;2023-08-07T07:20:07;20.50;75.80
12977;DHT22;6553;48.412;9.514;2023-08-07T07:22:35;20.60;75.90
12977;DHT22;6553;48.412;9.514;2023-08-07T07:25:01;20.50;75.90
12977;DHT22;6553;48.412;9.514;2023-08-07T07:27:27;20.60;76.00
12977;DHT22;6553;48.412;9.514;2023-08-07T07:29:52;20.50;75.80
12977;DHT22;6553;48.412;9.514;2023-08-07T07:32:19;20.50;75.90
12977;DHT22;6553;48.412;9.514;2023-08-07T07:34:44;20.50;75.80
12977;DHT22;6553;48.412;9.514;2023-08-07T07:37:10;20.60;76.10
12977;DHT22;6553;48.412;9.514;2023-08-07T07:39:36;20.60;76.70
12977;DHT22;6553;48.412;9.514;2023-08-07T07:42:02;20.60;76.90
12977;DHT22;6553;48.412;9.514;2023-08-07T07:44:30;20.60;77.00
12977;DHT22;6553;48.412;9.514;2023-08-07T07:46:56;20.60;76.90
12977;DHT22;6553;48.412;9.514;2023-08-07T07:49:22;20.60;77.00
12977;DHT22;6553;48.412;9.514;2023-08-07T07:51:48;20.60;76.80
12977;DHT22;6553;48.412;9.514;2023-08-07T07:54:14;20.60;76.80
12977;DHT22;6553;48.412;9.514;2023-08-07T07:56:41;20.60;76.80
12977;DHT22;6553;48.412;9.514;2023-08-07T07:59:10;20.60;76.80
12977;DHT22;6553;48.412;9.514;2023-08-07T08:01:35;20.60;76.70
12977;DHT22;6553;48.412;9.514;2023-08-07T08:04:01;20.60;76.70
12977;DHT22;6553;48.412;9.514;2023-08-07T08:06:27;20.60;76.90
12977;DHT22;6553;48.412;9.514;2023-08-07T08:08:53;20.70;76.60
12977;DHT22;6553;48.412;9.514;2023-08-07T08:11:18;20.70;76.50
12977;DHT22;6553;48.412;9.514;2023-08-07T08:13:44;20.70;76.60
12977;DHT22;6553;48.412;9.514;2023-08-07T08:16:10;20.70;76.80
12977;DHT22;6553;48.412;9.514;2023-08-07T08:18:35;20.70;76.90
12977;DHT22;6553;48.412;9.514;2023-08-07T08:21:01;20.70;77.00
12977;DHT22;6553;48.412;9.514;2023-08-07T08:23:27;20.70;77.20
12977;DHT22;6553;48.412;9.514;2023-08-07T08:25:53;20.70;77.10
12977;DHT22;6553;48.412;9.514;2023-08-07T08:28:18;20.70;77.10
12977;DHT22;6553;48.412;9.514;2023-08-07T08:30:44;20.70;77.10
12977;DHT22;6553;48.412;9.514;2023-08-07T08:33:10;20.70;77.10
12977;DHT22;6553;48.412;9.514;2023-08-07T08:35:38;20.70;76.90
12977;DHT22;6553;48.412;9.514;2023-08-07T08:38:04;20.70;76.90
12977;DHT22;6553;48.412;9.514;2023-08-07T08:40:30;20.70;77.10
12977;DHT22;6553;48.412;9.514;2023-08-07T08:42:57;20.80;76.90
12977;DHT22;6553;48.412;9.514;2023-08-07T08:45:26;20.70;76.20
12977;DHT22;6553;48.412;9.514;2023-08-07T08:47:56;20.60;75.00
12977;DHT22;6553;48.412;9.514;2023-08-07T08:50:28;20.40;69.20
12977;DHT22;6553;48.412;9.514;2023-08-07T08:52:55;20.20;68.40
12977;DHT22;6553;48.412;9.514;2023-08-07T08:55:22;20.30;70.90
12977;DHT22;6553;48.412;9.514;2023-08-07T08:57:49;20.40;72.90
12977;DHT22;6553;48.412;9.514;2023-08-07T09:00:19;20.50;73.40
12977;DHT22;6553;48.412;9.514;2023-08-07T09:02:50;20.60;72.70
12977;DHT22;6553;48.412;9.514;2023-08-07T09:05:18;20.60;71.80
12977;DHT22;6553;48.412;9.514;2023-08-07T09:07:46;20.70;71.60
12977;DHT22;6553;48.412;9.514;2023-08-07T09:10:14;20.70;71.70
12977;DHT22;6553;48.412;9.514;2023-08-07T09:12:51;20.70;71.70
12977;DHT22;6553;48.412;9.514;2023-08-07T09:15:20;20.70;71.60
12977;DHT22;6553;48.412;9.514;2023-08-07T09:17:49;20.80;71.90
12977;DHT22;6553;48.412;9.514;2023-08-07T09:20:16;20.80;71.80
12977;DHT22;6553;48.412;9.514;2023-08-07T09:22:42;20.80;71.90
12977;DHT22;6553;48.412;9.514;2023-08-07T09:25:08;20.80;71.80
12977;DHT22;6553;48.412;9.514;2023-08-07T09:27:37;20.80;72.00
12977;DHT22;6553;48.412;9.514;2023-08-07T09:30:07;20.80;72.00
12977;DHT22;6553;48.412;9.514;2023-08-07T09:32:35;20.90;72.10
12977;DHT22;6553;48.412;9.514;2023-08-07T09:35:06;20.90;72.10
12977;DHT22;6553;48.412;9.514;2023-08-07T09:37:32;20.90;72.40
12977;DHT22;6553;48.412;9.514;2023-08-07T09:40:00;20.90;72.70
12977;DHT22;6553;48.412;9.514;2023-08-07T09:42:30;20.90;73.10
12977;DHT22;6553;48.412;9.514;2023-08-07T09:44:59;20.90;73.10
12977;DHT22;6553;48.412;9.514;2023-08-07T09:47:25;20.90;73.20
12977;DHT22;6553;48.412;9.514;2023-08-07T09:49:54;20.90;73.20
12977;DHT22;6553;48.412;9.514;2023-08-07T09:52:21;20.90;73.20
12977;DHT22;6553;48.412;9.514;2023-08-07T09:54:47;20.90;73.10
12977;DHT22;6553;48.412;9.514;2023-08-07T09:57:13;21.00;73.80
12977;DHT22;6553;48.412;9.514;2023-08-07T09:59:40;21.00;74.00
12977;DHT22;6553;48.412;9.514;2023-08-07T10:02:06;21.00;74.80
12977;DHT22;6553;48.412;9.514;2023-08-07T10:04:34;20.90;73.90
12977;DHT22;6553;48.412;9.514;2023-08-07T10:07:01;21.00;74.40
12977;DHT22;6553;48.412;9.514;2023-08-07T10:09:27;20.90;73.90
12977;DHT22;6553;48.412;9.514;2023-08-07T10:11:54;21.00;74.20
12977;DHT22;6553;48.412;9.514;2023-08-07T10:14:22;21.00;74.00
12977;DHT22;6553;48.412;9.514;2023-08-07T10:16:49;21.00;74.00
12977;DHT22;6553;48.412;9.514;2023-08-07T10:19:16;21.00;74.00
12977;DHT22;6553;48.412;9.514;2023-08-07T10:21:43;21.00;73.90
12977;DHT22;6553;48.412;9.514;2023-08-07T10:24:10;21.00;74.00
12977;DHT22;6553;48.412;9.514;2023-08-07T10:26:41;21.00;74.00
12977;DHT22;6553;48.412;9.514;2023-08-07T10:29:13;21.10;74.00
12977;DHT22;6553;48.412;9.514;2023-08-07T10:31:42;21.00;74.00
12977;DHT22;6553;48.412;9.514;2023-08-07T10:34:10;21.00;74.00
12977;DHT22;6553;48.412;9.514;2023-08-07T10:36:36;21.00;74.00
12977;DHT22;6553;48.412;9.514;2023-08-07T10:39:12;21.00;74.00
12977;DHT22;6553;48.412;9.514;2023-08-07T10:41:49;21.00;74.00
12977;DHT22;6553;48.412;9.514;2023-08-07T10:44:44;21.10;73.40
12977;DHT22;6553;48.412;9.514;2023-08-07T10:47:14;21.00;73.30
12977;DHT22;6553;48.412;9.514;2023-08-07T10:49:41;21.10;73.10
12977;DHT22;6553;48.412;9.514;2023-08-07T10:52:11;21.00;72.80
12977;DHT22;6553;48.412;9.514;2023-08-07T10:54:49;21.10;72.60
12977;DHT22;6553;48.412;9.514;2023-08-07T10:57:17;21.10;72.30
12977;DHT22;6553;48.412;9.514;2023-08-07T11:00:01;21.10;72.70
12977;DHT22;6553;48.412;9.514;2023-08-07T11:02:31;21.10;72.80
12977;DHT22;6553;48.412;9.514;2023-08-07T11:04:58;21.10;72.70
12977;DHT22;6553;48.412;9.514;2023-08-07T11:07:29;21.10;72.20
12977;DHT22;6553;48.412;9.514;2023-08-07T11:09:56;21.10;72.60
12977;DHT22;6553;48.412;9.514;2023-08-07T11:12:27;21.10;72.60
12977;DHT22;6553;48.412;9.514;2023-08-07T11:14:54;21.10;72.60
12977;DHT22;6553;48.412;9.514;2023-08-07T11:17:28;21.10;72.40
12977;DHT22;6553;48.412;9.514;2023-08-07T11:19:55;21.10;72.60
12977;DHT22;6553;48.412;9.514;2023-08-07T11:22:22;21.10;72.60
12977;DHT22;6553;48.412;9.514;2023-08-07T11:24:50;21.10;72.70
12977;DHT22;6553;48.412;9.514;2023-08-07T11:27:16;21.10;73.00
12977;DHT22;6553;48.412;9.514;2023-08-07T11:29:47;21.10;73.00
12977;DHT22;6553;48.412;9.514;2023-08-07T11:32:14;21.10;72.90
12977;DHT22;6553;48.412;9.514;2023-08-07T11:34:40;21.10;72.40
12977;DHT22;6553;48.412;9.514;2023-08-07T11:37:05;21.10;72.30
12977;DHT22;6553;48.412;9.514;2023-08-07T11:39:31;21.10;72.00
12977;DHT22;6553;48.412;9.514;2023-08-07T11:41:57;21.10;72.50
12977;DHT22;6553;48.412;9.514;2023-08-07T11:44:23;21.10;72.10
12977;DHT22;6553;48.412;9.514;2023-08-07T11:46:50;21.10;72.00
12977;DHT22;6553;48.412;9.514;2023-08-07T11:49:16;21.10;71.80
12977;DHT22;6553;48.412;9.514;2023-08-07T11:51:43;21.10;70.20
12977;DHT22;6553;48.412;9.514;2023-08-07T11:54:15;20.90;70.30
12977;DHT22;6553;48.412;9.514;2023-08-07T11:56:42;21.00;72.00
12977;DHT22;6553;48.412;9.514;2023-08-07T11:59:10;21.00;71.80
12977;DHT22;6553;48.412;9.514;2023-08-07T12:01:38;21.00;71.70
12977;DHT22;6553;48.412;9.514;2023-08-07T12:06:31;21.00;72.00
12977;DHT22;6553;48.412;9.514;2023-08-07T12:08:57;21.00;71.80
12977;DHT22;6553;48.412;9.514;2023-08-07T12:11:23;21.10;72.00
12977;DHT22;6553;48.412;9.514;2023-08-07T12:13:49;21.00;72.70
12977;DHT22;6553;48.412;9.514;2023-08-07T12:16:16;21.00;71.60
12977;DHT22;6553;48.412;9.514;2023-08-07T12:18:52;21.10;71.80
12977;DHT22;6553;48.412;9.514;2023-08-07T12:21:22;21.10;71.50
12977;DHT22;6553;48.412;9.514;2023-08-07T12:23:50;21.10;71.40
12977;DHT22;6553;48.412;9.514;2023-08-07T12:26:18;21.10;71.10
12977;DHT22;6553;48.412;9.514;2023-08-07T12:28:43;21.10;71.10
12977;DHT22;6553;48.412;9.514;2023-08-07T12:31:09;21.10;71.40
12977;DHT22;6553;48.412;9.514;2023-08-07T12:33:35;21.10;71.60
12977;DHT22;6553;48.412;9.514;2023-08-07T12:36:01;21.00;71.30
12977;DHT22;6553;48.412;9.514;2023-08-07T12:38:28;21.00;71.50
12977;DHT22;6553;48.412;9.514;2023-08-07T12:40:54;21.00;71.70
12977;DHT22;6553;48.412;9.514;2023-08-07T12:43:21;20.90;71.60
12977;DHT22;6553;48.412;9.514;2023-08-07T12:45:47;20.90;71.90
12977;DHT22;6553;48.412;9.514;2023-08-07T12:48:13;20.70;69.00
12977;DHT22;6553;48.412;9.514;2023-08-07T12:50:39;20.70;69.20
12977;DHT22;6553;48.412;9.514;2023-08-07T12:53:06;20.80;69.20
12977;DHT22;6553;48.412;9.514;2023-08-07T12:55:33;20.70;68.70
12977;DHT22;6553;48.412;9.514;2023-08-07T12:57:59;20.70;69.90
12977;DHT22;6553;48.412;9.514;2023-08-07T13:00:24;20.70;69.70
12977;DHT22;6553;48.412;9.514;2023-08-07T13:02:52;20.70;68.20
12977;DHT22;6553;48.412;9.514;2023-08-07T13:05:20;20.70;69.20
12977;DHT22;6553;48.412;9.514;2023-08-07T13:07:47;20.70;69.90
12977;DHT22;6553;48.412;9.514;2023-08-07T13:10:17;20.70;70.00
12977;DHT22;6553;48.412;9.514;2023-08-07T13:12:44;20.70;70.00
12977;DHT22;6553;48.412;9.514;2023-08-07T13:15:13;20.70;70.30
12977;DHT22;6553;48.412;9.514;2023-08-07T13:17:40;20.80;70.00
12977;DHT22;6553;48.412;9.514;2023-08-07T13:20:08;20.80;69.90
12977;DHT22;6553;48.412;9.514;2023-08-07T13:22:38;20.80;69.90
12977;DHT22;6553;48.412;9.514;2023-08-07T13:25:06;20.70;69.30
12977;DHT22;6553;48.412;9.514;2023-08-07T13:27:33;20.80;69.80
12977;DHT22;6553;48.412;9.514;2023-08-07T13:29:59;20.70;69.40
12977;DHT22;6553;48.412;9.514;2023-08-07T13:32:26;20.70;69.40
12977;DHT22;6553;48.412;9.514;2023-08-07T13:34:52;20.70;68.00
12977;DHT22;6553;48.412;9.514;2023-08-07T13:37:19;20.70;69.10
12977;DHT22;6553;48.412;9.514;2023-08-07T13:39:44;20.70;69.30
12977;DHT22;6553;48.412;9.514;2023-08-07T13:42:10;20.70;69.40
12977;DHT22;6553;48.412;9.514;2023-08-07T13:44:37;20.70;69.10
12977;DHT22;6553;48.412;9.514;2023-08-07T13:47:04;20.70;68.80
12977;DHT22;6553;48.412;9.514;2023-08-07T13:49:30;20.70;68.30
12977;DHT22;6553;48.412;9.514;2023-08-07T13:51:56;20.70;68.70
12977;DHT22;6553;48.412;9.514;2023-08-07T13:54:22;20.70;69.10
12977;DHT22;6553;48.412;9.514;2023-08-07T13:56:48;20.70;68.90
12977;DHT22;6553;48.412;9.514;2023-08-07T13:59:13;20.80;68.20
12977;DHT22;6553;48.412;9.514;2023-08-07T14:01:39;20.80;68.50
12977;DHT22;6553;48.412;9.514;2023-08-07T14:04:05;20.80;68.20
12977;DHT22;6553;48.412;9.514;2023-08-07T14:06:31;20.80;68.90
12977;DHT22;6553;48.412;9.514;2023-08-07T14:08:57;20.90;69.10
12977;DHT22;6553;48.412;9.514;2023-08-07T14:11:23;21.00;69.10
12977;DHT22;6553;48.412;9.514;2023-08-07T14:13:53;21.00;69.60
12977;DHT22;6553;48.412;9.514;2023-08-07T14:16:19;21.00;69.50
12977;DHT22;6553;48.412;9.514;2023-08-07T14:18:44;21.00;69.40
12977;DHT22;6553;48.412;9.514;2023-08-07T14:21:10;21.00;68.70
12977;DHT22;6553;48.412;9.514;2023-08-07T14:23:36;21.00;68.80
12977;DHT22;6553;48.412;9.514;2023-08-07T14:26:01;21.00;68.60
12977;DHT22;6553;48.412;9.514;2023-08-07T14:28:27;21.00;68.70
12977;DHT22;6553;48.412;9.514;2023-08-07T14:30:57;21.00;68.30
12977;DHT22;6553;48.412;9.514;2023-08-07T14:33:23;21.00;68.30
12977;DHT22;6553;48.412;9.514;2023-08-07T14:35:49;21.00;68.60
12977;DHT22;6553;48.412;9.514;2023-08-07T14:38:15;21.00;68.60
12977;DHT22;6553;48.412;9.514;2023-08-07T14:40:40;21.00;68.40
12977;DHT22;6553;48.412;9.514;2023-08-07T14:43:06;21.00;68.50
12977;DHT22;6553;48.412;9.514;2023-08-07T14:45:32;21.00;68.20
12977;DHT22;6553;48.412;9.514;2023-08-07T14:47:58;21.00;68.70
12977;DHT22;6553;48.412;9.514;2023-08-07T14:50:24;21.00;68.10
12977;DHT22;6553;48.412;9.514;2023-08-07T14:52:49;21.00;68.70
12977;DHT22;6553;48.412;9.514;2023-08-07T14:55:15;21.10;68.50
12977;DHT22;6553;48.412;9.514;2023-08-07T14:57:42;21.10;68.40
12977;DHT22;6553;48.412;9.514;2023-08-07T15:00:08;21.10;68.10
12977;DHT22;6553;48.412;9.514;2023-08-07T15:02:34;21.10;68.50
12977;DHT22;6553;48.412;9.514;2023-08-07T15:05:00;21.10;68.40
12977;DHT22;6553;48.412;9.514;2023-08-07T15:07:26;21.10;68.30
12977;DHT22;6553;48.412;9.514;2023-08-07T15:09:51;21.10;68.60
12977;DHT22;6553;48.412;9.514;2023-08-07T15:12:17;21.10;68.80
12977;DHT22;6553;48.412;9.514;2023-08-07T15:14:43;21.10;69.00
12977;DHT22;6553;48.412;9.514;2023-08-07T15:17:08;21.00;68.90
12977;DHT22;6553;48.412;9.514;2023-08-07T15:19:34;21.10;69.10
12977;DHT22;6553;48.412;9.514;2023-08-07T15:22:00;21.00;69.00
12977;DHT22;6553;48.412;9.514;2023-08-07T15:24:26;21.00;69.40
12977;DHT22;6553;48.412;9.514;2023-08-07T15:26:51;21.00;69.50
12977;DHT22;6553;48.412;9.514;2023-08-07T15:29:17;21.00;69.20
12977;DHT22;6553;48.412;9.514;2023-08-07T15:31:43;21.00;69.30
12977;DHT22;6553;48.412;9.514;2023-08-07T15:34:08;21.00;69.20
12977;DHT22;6553;48.412;9.514;2023-08-07T15:36:34;21.00;69.50
12977;DHT22;6553;48.412;9.514;2023-08-07T15:39:00;21.00;69.50
12977;DHT22;6553;48.412;9.514;2023-08-07T15:41:26;21.00;69.70
12977;DHT22;6553;48.412;9.514;2023-08-07T15:43:51;21.00;69.60
12977;DHT22;6553;48.412;9.514;2023-08-07T15:46:17;21.00;70.60
12977;DHT22;6553;48.412;9.514;2023-08-07T15:48:43;21.00;69.80
12977;DHT22;6553;48.412;9.514;2023-08-07T15:51:09;21.00;70.20
12977;DHT22;6553;48.412;9.514;2023-08-07T15:53:35;21.00;70.10
12977;DHT22;6553;48.412;9.514;2023-08-07T15:56:01;21.00;70.00